sensor_id;sensor_type;location;lat;lon;timestamp;temperature;humidity
64689;DHT22;62504;46.070;14.492;2023-05-07T00:02:24;15.80;99.90
64689;DHT22;62504;46.070;14.492;2023-05-07T00:04:50;15.80;99.90
64689;DHT22;62504;46.070;14.492;2023-05-07T00:07:17;15.80;99.90
64689;DHT22;62504;46.070;14.492;2023-05-07T00:09:43;15.70;99.90
64689;DHT22;62504;46.070;14.492;2023-05-07T00:12:09;15.60;99.90
64689;DHT22;62504;46.070;14.492;2023-05-07T00:14:34;15.50;99.90
64689;DHT22;62504;46.070;14.492;2023-05-07T00:17:00;15.50;99.90
64689;DHT22;62504;46.070;14.492;2023-05-07T00:19:26;15.40;99.90
64689;DHT22;62504;46.070;14.492;2023-05-07T00:21:51;15.40;99.90
64689;DHT22;62504;46.070;14.492;2023-05-07T00:24:19;15.40;99.90
64689;DHT22;62504;46.070;14.492;2023-05-07T00:26:44;15.30;99.90
64689;DHT22;62504;46.070;14.492;2023-05-07T00:29:10;15.50;99.90
64689;DHT22;62504;46.070;14.492;2023-05-07T00:31:36;15.50;99.90
64689;DHT22;62504;46.070;14.492;2023-05-07T00:34:01;15.50;99.90
64689;DHT22;62504;46.070;14.492;2023-05-07T00:36:27;15.40;99.90
64689;DHT22;62504;46.070;14.492;2023-05-07T00:38:54;15.30;99.90
64689;DHT22;62504;46.070;14.492;2023-05-07T00:41:20;15.40;99.90
64689;DHT22;62504;46.070;14.492;2023-05-07T00:43:45;15.30;99.90
64689;DHT22;62504;46.070;14.492;2023-05-07T00:46:11;15.30;99.90
64689;DHT22;62504;46.070;14.492;2023-05-07T00:48:37;15.10;99.90
64689;DHT22;62504;46.070;14.492;2023-05-07T00:51:03;15.10;99.90
64689;DHT22;62504;46.070;14.492;2023-05-07T00:53:28;15.20;99.90
64689;DHT22;62504;46.070;14.492;2023-05-07T00:55:55;15.30;99.90
64689;DHT22;62504;46.070;14.492;2023-05-07T00:58:21;15.30;99.90
64689;DHT22;62504;46.070;14.492;2023-05-07T01:00:47;15.30;99.90
64689;DHT22;62504;46.070;14.492;2023-05-07T01:03:13;15.20;99.90
64689;DHT22;62504;46.070;14.492;2023-05-07T01:05:38;15.20;99.90
64689;DHT22;62504;46.070;14.492;2023-05-07T01:08:05;15.30;99.90
64689;DHT22;62504;46.070;14.492;2023-05-07T01:10:31;15.20;99.90
64689;DHT22;62504;46.070;14.492;2023-05-07T01:12:58;15.10;99.90
64689;DHT22;62504;46.070;14.492;2023-05-07T01:15:24;15.20;99.90
64689;DHT22;62504;46.070;14.492;2023-05-07T01:17:49;15.00;99.90
64689;DHT22;62504;46.070;14.492;2023-05-07T01:20:15;15.00;99.90
64689;DHT22;62504;46.070;14.492;2023-05-07T01:22:41;14.90;99.90
64689;DHT22;62504;46.070;14.492;2023-05-07T01:25:08;14.90;99.90
64689;DHT22;62504;46.070;14.492;2023-05-07T01:27:34;14.90;99.90
64689;DHT22;62504;46.070;14.492;2023-05-07T01:30:01;15.00;99.90
64689;DHT22;62504;46.070;14.492;2023-05-07T01:32:35;14.80;99.90
64689;DHT22;62504;46.070;14.492;2023-05-07T01:35:02;14.70;99.90
64689;DHT22;62504;46.070;14.492;2023-05-07T01:37:28;14.70;99.90
64689;DHT22;62504;46.070;14.492;2023-05-07T01:39:54;14.60;99.90
64689;DHT22;62504;46.070;14.492;2023-05-07T01:42:21;14.60;99.90
64689;DHT22;62504;46.070;14.492;2023-05-07T01:44:47;14.80;99.90
64689;DHT22;62504;46.070;14.492;2023-05-07T01:47:13;14.80;99.90
64689;DHT22;62504;46.070;14.492;2023-05-07T01:49:40;14.70;99.90
64689;DHT22;62504;46.070;14.492;2023-05-07T01:52:07;14.60;99.90
64689;DHT22;62504;46.070;14.492;2023-05-07T01:54:32;14.60;99.90
64689;DHT22;62504;46.070;14.492;2023-05-07T01:56:58;14.50;99.90
64689;DHT22;62504;46.070;14.492;2023-05-07T01:59:24;14.50;99.90
64689;DHT22;62504;46.070;14.492;2023-05-07T02:01:49;14.40;99.90
64689;DHT22;62504;46.070;14.492;2023-05-07T02:04:15;14.40;99.90
64689;DHT22;62504;46.070;14.492;2023-05-07T02:06:40;14.60;99.90
64689;DHT22;62504;46.070;14.492;2023-05-07T02:09:06;14.50;99.90
64689;DHT22;62504;46.070;14.492;2023-05-07T02:11:32;14.50;99.90
64689;DHT22;62504;46.070;14.492;2023-05-07T02:13:57;14.50;99.90
64689;DHT22;62504;46.070;14.492;2023-05-07T02:16:23;14.60;99.90
64689;DHT22;62504;46.070;14.492;2023-05-07T02:18:49;14.60;99.90
64689;DHT22;62504;46.070;14.492;2023-05-07T02:21:15;14.40;99.90
64689;DHT22;62504;46.070;14.492;2023-05-07T02:23:40;14.30;99.90
64689;DHT22;62504;46.070;14.492;2023-05-07T02:26:06;14.20;99.90
64689;DHT22;62504;46.070;14.492;2023-05-07T02:28:32;14.20;99.90
64689;DHT22;62504;46.070;14.492;2023-05-07T02:30:57;14.30;99.90
64689;DHT22;62504;46.070;14.492;2023-05-07T02:33:26;14.20;99.90
64689;DHT22;62504;46.070;14.492;2023-05-07T02:35:51;14.30;99.90
64689;DHT22;62504;46.070;14.492;2023-05-07T02:38:17;14.40;99.90
64689;DHT22;62504;46.070;14.492;2023-05-07T02:40:43;14.50;99.90
64689;DHT22;62504;46.070;14.492;2023-05-07T02:43:09;14.20;99.90
64689;DHT22;62504;46.070;14.492;2023-05-07T02:45:35;14.10;99.90
64689;DHT22;62504;46.070;14.492;2023-05-07T02:48:03;14.10;99.90
64689;DHT22;62504;46.070;14.492;2023-05-07T02:50:28;14.20;99.90
64689;DHT22;62504;46.070;14.492;2023-05-07T02:52:54;14.20;99.90
64689;DHT22;62504;46.070;14.492;2023-05-07T02:55:20;14.30;99.90
64689;DHT22;62504;46.070;14.492;2023-05-07T02:57:46;14.20;99.90
64689;DHT22;62504;46.070;14.492;2023-05-07T03:00:14;14.10;99.90
64689;DHT22;62504;46.070;14.492;2023-05-07T03:02:40;14.00;99.90
64689;DHT22;62504;46.070;14.492;2023-05-07T03:05:06;14.10;99.90
64689;DHT22;62504;46.070;14.492;2023-05-07T03:07:31;14.30;99.90
64689;DHT22;62504;46.070;14.492;2023-05-07T03:09:57;14.20;99.90
64689;DHT22;62504;46.070;14.492;2023-05-07T03:12:23;14.30;99.90
64689;DHT22;62504;46.070;14.492;2023-05-07T03:14:48;14.20;99.90
64689;DHT22;62504;46.070;14.492;2023-05-07T03:17:14;14.30;99.90
64689;DHT22;62504;46.070;14.492;2023-05-07T03:19:41;14.30;99.90
64689;DHT22;62504;46.070;14.492;2023-05-07T03:22:07;14.40;99.90
64689;DHT22;62504;46.070;14.492;2023-05-07T03:24:32;14.20;99.90
64689;DHT22;62504;46.070;14.492;2023-05-07T03:26:58;14.10;99.90
64689;DHT22;62504;46.070;14.492;2023-05-07T03:29:24;14.10;99.90
64689;DHT22;62504;46.070;14.492;2023-05-07T03:31:49;14.20;99.90
64689;DHT22;62504;46.070;14.492;2023-05-07T03:34:16;14.20;99.90
64689;DHT22;62504;46.070;14.492;2023-05-07T03:36:50;14.20;99.90
64689;DHT22;62504;46.070;14.492;2023-05-07T03:39:15;14.10;99.90
64689;DHT22;62504;46.070;14.492;2023-05-07T03:41:41;14.00;99.90
64689;DHT22;62504;46.070;14.492;2023-05-07T03:44:06;13.90;99.90
64689;DHT22;62504;46.070;14.492;2023-05-07T03:46:33;14.00;99.90
64689;DHT22;62504;46.070;14.492;2023-05-07T03:48:59;14.10;99.90
64689;DHT22;62504;46.070;14.492;2023-05-07T03:51:25;14.10;99.90
64689;DHT22;62504;46.070;14.492;2023-05-07T03:53:51;14.20;99.90
64689;DHT22;62504;46.070;14.492;2023-05-07T03:56:19;14.10;99.90
64689;DHT22;62504;46.070;14.492;2023-05-07T03:58:47;14.00;99.90
64689;DHT22;62504;46.070;14.492;2023-05-07T04:01:12;13.80;99.90
64689;DHT22;62504;46.070;14.492;2023-05-07T04:03:38;13.80;99.90
64689;DHT22;62504;46.070;14.492;2023-05-07T04:06:03;13.70;99.90
64689;DHT22;62504;46.070;14.492;2023-05-07T04:08:29;13.80;99.90
64689;DHT22;62504;46.070;14.492;2023-05-07T04:10:58;14.00;99.90
64689;DHT22;62504;46.070;14.492;2023-05-07T04:13:25;14.00;99.90
64689;DHT22;62504;46.070;14.492;2023-05-07T04:15:51;14.00;99.90
64689;DHT22;62504;46.070;14.492;2023-05-07T04:18:17;14.00;99.90
64689;DHT22;62504;46.070;14.492;2023-05-07T04:20:43;13.90;99.90
64689;DHT22;62504;46.070;14.492;2023-05-07T04:23:08;13.90;99.90
64689;DHT22;62504;46.070;14.492;2023-05-07T04:25:34;14.10;99.90
64689;DHT22;62504;46.070;14.492;2023-05-07T04:28:00;14.10;99.90
64689;DHT22;62504;46.070;14.492;2023-05-07T04:30:25;14.20;99.90
64689;DHT22;62504;46.070;14.492;2023-05-07T04:32:52;14.30;99.90
64689;DHT22;62504;46.070;14.492;2023-05-07T04:35:18;14.40;99.90
64689;DHT22;62504;46.070;14.492;2023-05-07T04:37:43;14.40;99.90
64689;DHT22;62504;46.070;14.492;2023-05-07T04:40:09;14.30;99.90
64689;DHT22;62504;46.070;14.492;2023-05-07T04:42:35;14.20;99.90
64689;DHT22;62504;46.070;14.492;2023-05-07T04:45:01;14.30;99.90
64689;DHT22;62504;46.070;14.492;2023-05-07T04:47:27;14.30;99.90
64689;DHT22;62504;46.070;14.492;2023-05-07T04:49:53;14.40;99.90
64689;DHT22;62504;46.070;14.492;2023-05-07T04:52:19;14.40;99.90
64689;DHT22;62504;46.070;14.492;2023-05-07T04:54:44;14.50;99.90
64689;DHT22;62504;46.070;14.492;2023-05-07T04:57:10;14.50;99.90
64689;DHT22;62504;46.070;14.492;2023-05-07T04:59:38;14.50;99.90
64689;DHT22;62504;46.070;14.492;2023-05-07T05:02:04;14.40;99.90
64689;DHT22;62504;46.070;14.492;2023-05-07T05:04:30;14.40;99.90
64689;DHT22;62504;46.070;14.492;2023-05-07T05:06:55;14.60;99.90
64689;DHT22;62504;46.070;14.492;2023-05-07T05:09:21;14.70;99.90
64689;DHT22;62504;46.070;14.492;2023-05-07T05:11:47;14.80;99.90
64689;DHT22;62504;46.070;14.492;2023-05-07T05:14:12;14.80;99.90
64689;DHT22;62504;46.070;14.492;2023-05-07T05:16:38;14.90;99.90
64689;DHT22;62504;46.070;14.492;2023-05-07T05:19:04;14.90;99.90
64689;DHT22;62504;46.070;14.492;2023-05-07T05:21:31;14.90;99.90
64689;DHT22;62504;46.070;14.492;2023-05-07T05:23:56;14.90;99.90
64689;DHT22;62504;46.070;14.492;2023-05-07T05:26:22;14.90;99.90
64689;DHT22;62504;46.070;14.492;2023-05-07T05:28:48;15.00;99.90
64689;DHT22;62504;46.070;14.492;2023-05-07T05:31:13;15.10;99.90
64689;DHT22;62504;46.070;14.492;2023-05-07T05:33:39;15.20;99.90
64689;DHT22;62504;46.070;14.492;2023-05-07T05:36:06;15.20;99.90
64689;DHT22;62504;46.070;14.492;2023-05-07T05:38:32;15.40;99.90
64689;DHT22;62504;46.070;14.492;2023-05-07T05:40:57;15.40;99.90
64689;DHT22;62504;46.070;14.492;2023-05-07T05:43:23;15.50;99.90
64689;DHT22;62504;46.070;14.492;2023-05-07T05:45:48;15.50;99.90
64689;DHT22;62504;46.070;14.492;2023-05-07T05:48:14;15.60;99.90
64689;DHT22;62504;46.070;14.492;2023-05-07T05:50:41;15.40;99.90
64689;DHT22;62504;46.070;14.492;2023-05-07T05:53:07;15.50;99.90
64689;DHT22;62504;46.070;14.492;2023-05-07T05:55:33;15.10;99.90
64689;DHT22;62504;46.070;14.492;2023-05-07T05:58:02;15.40;99.90
64689;DHT22;62504;46.070;14.492;2023-05-07T06:00:28;15.50;99.90
64689;DHT22;62504;46.070;14.492;2023-05-07T06:02:53;15.80;99.90
64689;DHT22;62504;46.070;14.492;2023-05-07T06:05:19;15.70;99.90
64689;DHT22;62504;46.070;14.492;2023-05-07T06:07:45;15.70;99.90
64689;DHT22;62504;46.070;14.492;2023-05-07T06:10:10;16.00;99.90
64689;DHT22;62504;46.070;14.492;2023-05-07T06:12:36;16.10;99.90
64689;DHT22;62504;46.070;14.492;2023-05-07T06:15:02;16.20;99.90
64689;DHT22;62504;46.070;14.492;2023-05-07T06:17:27;16.30;99.90
64689;DHT22;62504;46.070;14.492;2023-05-07T06:19:53;16.30;99.90
64689;DHT22;62504;46.070;14.492;2023-05-07T06:22:19;16.40;99.90
64689;DHT22;62504;46.070;14.492;2023-05-07T06:24:44;16.60;99.90
64689;DHT22;62504;46.070;14.492;2023-05-07T06:27:11;16.60;99.90
64689;DHT22;62504;46.070;14.492;2023-05-07T06:29:37;16.70;99.90
64689;DHT22;62504;46.070;14.492;2023-05-07T06:32:13;16.80;99.90
64689;DHT22;62504;46.070;14.492;2023-05-07T06:34:39;16.90;99.90
64689;DHT22;62504;46.070;14.492;2023-05-07T06:37:06;16.90;99.90
64689;DHT22;62504;46.070;14.492;2023-05-07T06:39:32;17.00;99.90
64689;DHT22;62504;46.070;14.492;2023-05-07T06:41:58;17.00;99.90
64689;DHT22;62504;46.070;14.492;2023-05-07T06:44:23;17.00;99.90
64689;DHT22;62504;46.070;14.492;2023-05-07T06:46:49;17.10;99.90
64689;DHT22;62504;46.070;14.492;2023-05-07T06:49:15;17.20;99.90
64689;DHT22;62504;46.070;14.492;2023-05-07T06:51:41;17.30;99.90
64689;DHT22;62504;46.070;14.492;2023-05-07T06:54:07;17.00;99.90
64689;DHT22;62504;46.070;14.492;2023-05-07T06:56:33;17.20;99.90
64689;DHT22;62504;46.070;14.492;2023-05-07T06:59:02;17.30;99.90
64689;DHT22;62504;46.070;14.492;2023-05-07T07:01:28;17.40;99.90
64689;DHT22;62504;46.070;14.492;2023-05-07T07:03:54;17.60;99.90
64689;DHT22;62504;46.070;14.492;2023-05-07T07:06:19;17.70;99.90
64689;DHT22;62504;46.070;14.492;2023-05-07T07:08:45;17.60;99.90
64689;DHT22;62504;46.070;14.492;2023-05-07T07:11:11;17.80;99.90
64689;DHT22;62504;46.070;14.492;2023-05-07T07:13:37;18.00;99.90
64689;DHT22;62504;46.070;14.492;2023-05-07T07:16:03;18.20;99.90
64689;DHT22;62504;46.070;14.492;2023-05-07T07:18:29;18.30;99.90
64689;DHT22;62504;46.070;14.492;2023-05-07T07:20:55;18.60;99.90
64689;DHT22;62504;46.070;14.492;2023-05-07T07:23:20;18.60;99.90
64689;DHT22;62504;46.070;14.492;2023-05-07T07:25:46;18.80;99.90
64689;DHT22;62504;46.070;14.492;2023-05-07T07:28:12;19.10;99.90
64689;DHT22;62504;46.070;14.492;2023-05-07T07:30:38;19.20;99.90
64689;DHT22;62504;46.070;14.492;2023-05-07T07:33:04;19.60;99.90
64689;DHT22;62504;46.070;14.492;2023-05-07T07:35:33;19.80;99.90
64689;DHT22;62504;46.070;14.492;2023-05-07T07:37:59;20.00;99.90
64689;DHT22;62504;46.070;14.492;2023-05-07T07:40:25;20.30;99.90
64689;DHT22;62504;46.070;14.492;2023-05-07T07:42:51;19.70;99.90
64689;DHT22;62504;46.070;14.492;2023-05-07T07:45:17;19.60;99.90
64689;DHT22;62504;46.070;14.492;2023-05-07T07:47:43;19.80;99.90
64689;DHT22;62504;46.070;14.492;2023-05-07T07:50:09;20.10;99.90
64689;DHT22;62504;46.070;14.492;2023-05-07T07:52:34;20.30;99.90
64689;DHT22;62504;46.070;14.492;2023-05-07T07:55:00;20.30;99.90
64689;DHT22;62504;46.070;14.492;2023-05-07T07:57:26;20.30;99.90
64689;DHT22;62504;46.070;14.492;2023-05-07T07:59:51;20.40;99.90
64689;DHT22;62504;46.070;14.492;2023-05-07T08:02:17;20.50;99.90
64689;DHT22;62504;46.070;14.492;2023-05-07T08:04:43;20.70;99.90
64689;DHT22;62504;46.070;14.492;2023-05-07T08:07:12;20.40;99.90
64689;DHT22;62504;46.070;14.492;2023-05-07T08:09:40;20.30;99.90
64689;DHT22;62504;46.070;14.492;2023-05-07T08:12:06;20.80;99.90
64689;DHT22;62504;46.070;14.492;2023-05-07T08:14:33;21.00;99.90
64689;DHT22;62504;46.070;14.492;2023-05-07T08:16:59;21.00;99.90
64689;DHT22;62504;46.070;14.492;2023-05-07T08:19:24;21.00;99.90
64689;DHT22;62504;46.070;14.492;2023-05-07T08:21:50;21.00;99.90
64689;DHT22;62504;46.070;14.492;2023-05-07T08:24:16;20.90;99.90
64689;DHT22;62504;46.070;14.492;2023-05-07T08:26:43;21.50;99.90
64689;DHT22;62504;46.070;14.492;2023-05-07T08:29:09;22.20;99.90
64689;DHT22;62504;46.070;14.492;2023-05-07T08:31:35;22.10;99.90
64689;DHT22;62504;46.070;14.492;2023-05-07T08:34:01;22.20;99.90
64689;DHT22;62504;46.070;14.492;2023-05-07T08:36:27;22.20;99.90
64689;DHT22;62504;46.070;14.492;2023-05-07T08:38:53;22.10;99.90
64689;DHT22;62504;46.070;14.492;2023-05-07T08:41:20;22.00;99.90
64689;DHT22;62504;46.070;14.492;2023-05-07T08:43:48;21.40;99.90
64689;DHT22;62504;46.070;14.492;2023-05-07T08:46:20;21.50;99.90
64689;DHT22;62504;46.070;14.492;2023-05-07T08:48:50;21.50;99.90
64689;DHT22;62504;46.070;14.492;2023-05-07T08:51:20;21.10;99.90
64689;DHT22;62504;46.070;14.492;2023-05-07T08:53:47;20.80;99.90
64689;DHT22;62504;46.070;14.492;2023-05-07T08:56:16;20.90;99.90
64689;DHT22;62504;46.070;14.492;2023-05-07T08:58:43;20.70;99.90
64689;DHT22;62504;46.070;14.492;2023-05-07T09:01:13;21.00;99.90
64689;DHT22;62504;46.070;14.492;2023-05-07T09:03:39;21.20;99.90
64689;DHT22;62504;46.070;14.492;2023-05-07T09:06:05;21.30;99.90
64689;DHT22;62504;46.070;14.492;2023-05-07T09:08:33;21.30;99.90
64689;DHT22;62504;46.070;14.492;2023-05-07T09:10:59;21.40;99.90
64689;DHT22;62504;46.070;14.492;2023-05-07T09:13:25;21.30;99.90
64689;DHT22;62504;46.070;14.492;2023-05-07T09:15:51;21.20;99.90
64689;DHT22;62504;46.070;14.492;2023-05-07T09:18:16;21.10;99.90
64689;DHT22;62504;46.070;14.492;2023-05-07T09:20:42;21.30;99.90
64689;DHT22;62504;46.070;14.492;2023-05-07T09:23:08;21.30;99.90
64689;DHT22;62504;46.070;14.492;2023-05-07T09:25:35;21.30;99.90
64689;DHT22;62504;46.070;14.492;2023-05-07T09:28:03;21.40;99.90
64689;DHT22;62504;46.070;14.492;2023-05-07T09:30:33;21.50;99.90
64689;DHT22;62504;46.070;14.492;2023-05-07T09:33:00;21.70;99.90
64689;DHT22;62504;46.070;14.492;2023-05-07T09:35:27;21.60;99.90
64689;DHT22;62504;46.070;14.492;2023-05-07T09:37:53;21.80;99.90
64689;DHT22;62504;46.070;14.492;2023-05-07T09:40:24;21.80;99.90
64689;DHT22;62504;46.070;14.492;2023-05-07T09:42:50;22.00;99.90
64689;DHT22;62504;46.070;14.492;2023-05-07T09:45:27;21.90;99.90
64689;DHT22;62504;46.070;14.492;2023-05-07T09:47:57;21.90;99.90
64689;DHT22;62504;46.070;14.492;2023-05-07T09:50:34;21.90;99.90
64689;DHT22;62504;46.070;14.492;2023-05-07T09:53:01;21.90;99.90
64689;DHT22;62504;46.070;14.492;2023-05-07T09:55:28;22.00;99.90
64689;DHT22;62504;46.070;14.492;2023-05-07T09:57:55;21.90;99.90
64689;DHT22;62504;46.070;14.492;2023-05-07T10:00:22;22.00;99.90
64689;DHT22;62504;46.070;14.492;2023-05-07T10:02:50;22.10;99.90
64689;DHT22;62504;46.070;14.492;2023-05-07T10:05:18;22.20;99.90
64689;DHT22;62504;46.070;14.492;2023-05-07T10:07:46;22.40;99.90
64689;DHT22;62504;46.070;14.492;2023-05-07T10:10:13;22.40;99.90
64689;DHT22;62504;46.070;14.492;2023-05-07T10:12:40;22.20;99.90
64689;DHT22;62504;46.070;14.492;2023-05-07T10:15:10;22.30;99.90
64689;DHT22;62504;46.070;14.492;2023-05-07T10:17:37;22.40;99.90
64689;DHT22;62504;46.070;14.492;2023-05-07T10:20:04;22.60;99.90
64689;DHT22;62504;46.070;14.492;2023-05-07T10:22:37;22.50;99.90
64689;DHT22;62504;46.070;14.492;2023-05-07T10:25:06;22.50;99.90
64689;DHT22;62504;46.070;14.492;2023-05-07T10:27:34;22.60;99.90
64689;DHT22;62504;46.070;14.492;2023-05-07T10:32:55;22.70;99.90
64689;DHT22;62504;46.070;14.492;2023-05-07T10:35:26;22.60;99.90
64689;DHT22;62504;46.070;14.492;2023-05-07T10:37:54;22.70;99.90
64689;DHT22;62504;46.070;14.492;2023-05-07T10:40:21;22.90;99.90
64689;DHT22;62504;46.070;14.492;2023-05-07T10:43:00;23.10;99.90
64689;DHT22;62504;46.070;14.492;2023-05-07T10:45:27;23.10;99.90
64689;DHT22;62504;46.070;14.492;2023-05-07T10:48:10;23.00;99.90
64689;DHT22;62504;46.070;14.492;2023-05-07T10:50:37;23.00;99.90
64689;DHT22;62504;46.070;14.492;2023-05-07T10:55:47;23.10;99.90
64689;DHT22;62504;46.070;14.492;2023-05-07T10:58:28;23.20;99.90
64689;DHT22;62504;46.070;14.492;2023-05-07T11:01:01;23.10;99.90
64689;DHT22;62504;46.070;14.492;2023-05-07T11:03:28;23.10;99.90
64689;DHT22;62504;46.070;14.492;2023-05-07T11:06:13;23.10;99.90
64689;DHT22;62504;46.070;14.492;2023-05-07T11:08:52;23.00;99.90
64689;DHT22;62504;46.070;14.492;2023-05-07T11:11:18;22.90;99.90
64689;DHT22;62504;46.070;14.492;2023-05-07T11:13:49;22.90;99.90
64689;DHT22;62504;46.070;14.492;2023-05-07T11:16:22;22.80;99.90
64689;DHT22;62504;46.070;14.492;2023-05-07T11:21:35;23.00;99.90
64689;DHT22;62504;46.070;14.492;2023-05-07T11:24:02;23.30;99.90
64689;DHT22;62504;46.070;14.492;2023-05-07T11:26:40;23.20;99.90
64689;DHT22;62504;46.070;14.492;2023-05-07T11:29:17;23.10;99.90
64689;DHT22;62504;46.070;14.492;2023-05-07T11:31:43;23.10;99.90
64689;DHT22;62504;46.070;14.492;2023-05-07T11:34:14;23.30;99.90
64689;DHT22;62504;46.070;14.492;2023-05-07T11:36:42;23.40;99.90
64689;DHT22;62504;46.070;14.492;2023-05-07T11:39:31;23.50;99.90
64689;DHT22;62504;46.070;14.492;2023-05-07T11:41:59;23.40;99.90
64689;DHT22;62504;46.070;14.492;2023-05-07T11:44:25;23.50;99.90
64689;DHT22;62504;46.070;14.492;2023-05-07T11:46:51;23.70;99.90
64689;DHT22;62504;46.070;14.492;2023-05-07T11:49:17;23.70;99.90
64689;DHT22;62504;46.070;14.492;2023-05-07T11:51:42;23.60;99.90
64689;DHT22;62504;46.070;14.492;2023-05-07T11:54:09;23.70;99.90
64689;DHT22;62504;46.070;14.492;2023-05-07T11:56:37;23.80;99.90
64689;DHT22;62504;46.070;14.492;2023-05-07T11:59:02;23.60;99.90
64689;DHT22;62504;46.070;14.492;2023-05-07T12:01:28;23.70;99.90
64689;DHT22;62504;46.070;14.492;2023-05-07T12:03:54;23.70;99.90
64689;DHT22;62504;46.070;14.492;2023-05-07T12:06:19;23.80;99.90
64689;DHT22;62504;46.070;14.492;2023-05-07T12:08:46;23.70;99.90
64689;DHT22;62504;46.070;14.492;2023-05-07T12:11:18;23.60;99.90
64689;DHT22;62504;46.070;14.492;2023-05-07T12:13:46;23.50;99.90
64689;DHT22;62504;46.070;14.492;2023-05-07T12:16:12;23.60;99.90
64689;DHT22;62504;46.070;14.492;2023-05-07T12:18:39;23.70;99.90
64689;DHT22;62504;46.070;14.492;2023-05-07T12:21:06;23.60;99.90
64689;DHT22;62504;46.070;14.492;2023-05-07T12:23:36;23.70;99.90
64689;DHT22;62504;46.070;14.492;2023-05-07T12:26:03;23.80;99.90
64689;DHT22;62504;46.070;14.492;2023-05-07T12:28:28;23.90;99.90
64689;DHT22;62504;46.070;14.492;2023-05-07T12:30:56;24.10;99.90
64689;DHT22;62504;46.070;14.492;2023-05-07T12:33:26;24.10;99.90
64689;DHT22;62504;46.070;14.492;2023-05-07T12:35:53;24.10;99.90
64689;DHT22;62504;46.070;14.492;2023-05-07T12:38:19;24.30;99.90
64689;DHT22;62504;46.070;14.492;2023-05-07T12:40:50;24.30;99.90
64689;DHT22;62504;46.070;14.492;2023-05-07T12:43:26;24.30;99.90
64689;DHT22;62504;46.070;14.492;2023-05-07T12:45:54;24.30;99.90
64689;DHT22;62504;46.070;14.492;2023-05-07T12:48:21;24.30;99.90
64689;DHT22;62504;46.070;14.492;2023-05-07T12:50:51;24.50;99.90
64689;DHT22;62504;46.070;14.492;2023-05-07T12:53:19;24.50;99.90
64689;DHT22;62504;46.070;14.492;2023-05-07T12:55:47;24.20;99.90
64689;DHT22;62504;46.070;14.492;2023-05-07T12:58:27;24.10;99.90
64689;DHT22;62504;46.070;14.492;2023-05-07T13:01:05;24.10;99.90
64689;DHT22;62504;46.070;14.492;2023-05-07T13:03:33;24.30;99.90
64689;DHT22;62504;46.070;14.492;2023-05-07T13:06:01;24.40;99.90
64689;DHT22;62504;46.070;14.492;2023-05-07T13:08:31;24.30;99.90
64689;DHT22;62504;46.070;14.492;2023-05-07T13:10:59;24.30;99.90
64689;DHT22;62504;46.070;14.492;2023-05-07T13:13:32;24.40;99.90
64689;DHT22;62504;46.070;14.492;2023-05-07T13:15:58;24.40;99.90
64689;DHT22;62504;46.070;14.492;2023-05-07T13:18:25;24.30;99.90
64689;DHT22;62504;46.070;14.492;2023-05-07T13:20:51;24.20;99.90
64689;DHT22;62504;46.070;14.492;2023-05-07T13:23:17;24.30;99.90
64689;DHT22;62504;46.070;14.492;2023-05-07T13:25:43;24.20;99.90
64689;DHT22;62504;46.070;14.492;2023-05-07T13:28:09;23.90;99.90
64689;DHT22;62504;46.070;14.492;2023-05-07T13:30:35;23.80;99.90
64689;DHT22;62504;46.070;14.492;2023-05-07T13:33:01;23.70;99.90
64689;DHT22;62504;46.070;14.492;2023-05-07T13:35:27;23.60;99.90
64689;DHT22;62504;46.070;14.492;2023-05-07T13:37:53;23.60;99.90
64689;DHT22;62504;46.070;14.492;2023-05-07T13:40:20;23.50;99.90
64689;DHT22;62504;46.070;14.492;2023-05-07T13:42:47;23.50;99.90
64689;DHT22;62504;46.070;14.492;2023-05-07T13:45:12;23.40;99.90
64689;DHT22;62504;46.070;14.492;2023-05-07T13:47:40;23.20;99.90
64689;DHT22;62504;46.070;14.492;2023-05-07T13:50:07;23.20;99.90
64689;DHT22;62504;46.070;14.492;2023-05-07T13:52:33;23.10;99.90
64689;DHT22;62504;46.070;14.492;2023-05-07T13:54:58;23.00;99.90
64689;DHT22;62504;46.070;14.492;2023-05-07T13:57:24;23.00;99.90
64689;DHT22;62504;46.070;14.492;2023-05-07T13:59:50;23.10;99.90
64689;DHT22;62504;46.070;14.492;2023-05-07T14:02:15;23.10;99.90
64689;DHT22;62504;46.070;14.492;2023-05-07T14:04:41;23.00;99.90
64689;DHT22;62504;46.070;14.492;2023-05-07T14:07:06;22.90;99.90
64689;DHT22;62504;46.070;14.492;2023-05-07T14:09:32;22.90;99.90
64689;DHT22;62504;46.070;14.492;2023-05-07T14:14:24;22.80;99.90
64689;DHT22;62504;46.070;14.492;2023-05-07T14:16:50;22.80;99.90
64689;DHT22;62504;46.070;14.492;2023-05-07T14:19:15;22.90;99.90
64689;DHT22;62504;46.070;14.492;2023-05-07T14:21:41;22.80;99.90
64689;DHT22;62504;46.070;14.492;2023-05-07T14:24:07;22.90;99.90
64689;DHT22;62504;46.070;14.492;2023-05-07T14:26:35;22.90;99.90
64689;DHT22;62504;46.070;14.492;2023-05-07T14:29:02;22.80;99.90
64689;DHT22;62504;46.070;14.492;2023-05-07T14:31:28;22.80;99.90
64689;DHT22;62504;46.070;14.492;2023-05-07T14:33:53;22.80;99.90
64689;DHT22;62504;46.070;14.492;2023-05-07T14:36:19;22.80;99.90
64689;DHT22;62504;46.070;14.492;2023-05-07T14:38:52;22.70;99.90
64689;DHT22;62504;46.070;14.492;2023-05-07T14:41:18;22.60;99.90
64689;DHT22;62504;46.070;14.492;2023-05-07T14:43:44;22.60;99.90
64689;DHT22;62504;46.070;14.492;2023-05-07T14:46:18;22.50;99.90
64689;DHT22;62504;46.070;14.492;2023-05-07T14:48:45;22.30;99.90
64689;DHT22;62504;46.070;14.492;2023-05-07T14:51:11;22.30;99.90
64689;DHT22;62504;46.070;14.492;2023-05-07T14:53:37;22.40;99.90
64689;DHT22;62504;46.070;14.492;2023-05-07T14:56:03;22.30;99.90
64689;DHT22;62504;46.070;14.492;2023-05-07T14:58:29;22.30;99.90
64689;DHT22;62504;46.070;14.492;2023-05-07T15:00:55;22.40;99.90
64689;DHT22;62504;46.070;14.492;2023-05-07T15:03:21;22.20;99.90
64689;DHT22;62504;46.070;14.492;2023-05-07T15:05:47;22.20;99.90
64689;DHT22;62504;46.070;14.492;2023-05-07T15:08:12;22.10;99.90
64689;DHT22;62504;46.070;14.492;2023-05-07T15:10:38;22.10;99.90
64689;DHT22;62504;46.070;14.492;2023-05-07T15:13:07;22.20;99.90
64689;DHT22;62504;46.070;14.492;2023-05-07T15:15:33;22.30;99.90
64689;DHT22;62504;46.070;14.492;2023-05-07T15:17:59;22.30;99.90
64689;DHT22;62504;46.070;14.492;2023-05-07T15:20:26;22.30;99.90
64689;DHT22;62504;46.070;14.492;2023-05-07T15:22:51;22.30;99.90
64689;DHT22;62504;46.070;14.492;2023-05-07T15:25:17;22.20;99.90